Hauptseite
METAR-TAF:

METAR-TAF

Flughäfen :

Flughafen Derry

Derry, Nordirland

Breite: 55-03N, Länge: 007-09W, Höhe: 9 m

Beobachtung

Neuester Wetterbericht von vor 37 Minuten, um 14:50 UTC
Wind 11 kt aus Ost/Südost, variierte zwischen Ost und Süd
Temperatur 24°C
Luftfeuchtigkeit 50%
Luftdruck 1017 hPa
Sichtweite 10 km oder mehr
Leicht bewölkt in der Höhe von 4500 ft

METAR: EGAE 271450Z 12011KT 100V190 9999 FEW045 24/13 Q1017

Zeit: 16:27 (15:27 UTC)


TAF: fehlend

Wetterbeobachtungen und Prognosen von mehr als 4000 Flughäfen (METAR und TAF Bericht).

Die verfügbaren Stationen werden durch gelbe und rote Markierungen auf der Karte dargestellt.

Führen Sie die Maus auf sie, um den Namen der Station zu sehen.

Darauf klicken, um die Beobachtung von Wetterbeobachtungen und Prognosen zu sehen.

Um die Karte zu ändern : klicken Sie auf den grünen Tasten mit einem schwarzen Kreuz Zum Vergrößern, auf den grünen Button mit einem Gedankenstrich zu verkleinern, oder auf die grünen Pfeile für benachbarte Karten.


METAR-TAF: